sensor_id;sensor_type;location;lat;lon;timestamp;pressure;altitude;pressure_sealevel;temperature;humidity
32452;BME280;45528;52.102;5.242;2023-07-13T00:00:54;100966.0;;;24.03;52.54
32452;BME280;45528;52.102;5.242;2023-07-13T00:04:06;100966.0;;;23.94;52.89
32452;BME280;45528;52.102;5.242;2023-07-13T00:05:42;100964.0;;;24.0;52.57
32452;BME280;45528;52.102;5.242;2023-07-13T00:07:18;100967.0;;;23.97;52.55
32452;BME280;45528;52.102;5.242;2023-07-13T00:10:31;100969.0;;;24.01;52.41
32452;BME280;45528;52.102;5.242;2023-07-13T00:12:22;100970.0;;;24.01;52.45
32452;BME280;45528;52.102;5.242;2023-07-13T00:14:04;100971.0;;;23.93;52.54
32452;BME280;45528;52.102;5.242;2023-07-13T00:15:40;100969.0;;;23.81;53.14
32452;BME280;45528;52.102;5.242;2023-07-13T00:18:52;100972.0;;;23.73;52.96
32452;BME280;45528;52.102;5.242;2023-07-13T00:20:28;100967.0;;;23.89;52.76
32452;BME280;45528;52.102;5.242;2023-07-13T00:22:04;100967.0;;;23.85;52.76
32452;BME280;45528;52.102;5.242;2023-07-13T00:23:41;100967.0;;;23.87;52.81
32452;BME280;45528;52.102;5.242;2023-07-13T00:26:55;100964.0;;;23.77;52.94
32452;BME280;45528;52.102;5.242;2023-07-13T00:28:32;100964.0;;;23.8;52.64
32452;BME280;45528;52.102;5.242;2023-07-13T00:30:09;100964.0;;;23.8;52.81
32452;BME280;45528;52.102;5.242;2023-07-13T00:33:23;100962.0;;;23.84;52.29
32452;BME280;45528;52.102;5.242;2023-07-13T00:34:59;100968.0;;;23.77;52.52
32452;BME280;45528;52.102;5.242;2023-07-13T00:36:35;100972.0;;;23.71;53.02
32452;BME280;45528;52.102;5.242;2023-07-13T00:39:47;100971.0;;;23.79;52.22
32452;BME280;45528;52.102;5.242;2023-07-13T00:41:23;100971.0;;;23.78;52.42
32452;BME280;45528;52.102;5.242;2023-07-13T00:43:00;100968.0;;;23.75;52.5
32452;BME280;45528;52.102;5.242;2023-07-13T00:44:36;100969.0;;;23.74;52.43
32452;BME280;45528;52.102;5.242;2023-07-13T00:48:00;100968.0;;;23.76;52.4
32452;BME280;45528;52.102;5.242;2023-07-13T00:49:36;100972.0;;;23.76;52.42
32452;BME280;45528;52.102;5.242;2023-07-13T00:51:13;100971.0;;;23.63;52.97
32452;BME280;45528;52.102;5.242;2023-07-13T00:54:32;100971.0;;;23.52;53.14
32452;BME280;45528;52.102;5.242;2023-07-13T00:56:15;100967.0;;;23.57;52.85
32452;BME280;45528;52.102;5.242;2023-07-13T00:57:51;100968.0;;;23.51;53.2
32452;BME280;45528;52.102;5.242;2023-07-13T00:59:28;100965.0;;;23.45;53.21
32452;BME280;45528;52.102;5.242;2023-07-13T01:02:44;100965.0;;;23.53;53.01
32452;BME280;45528;52.102;5.242;2023-07-13T01:04:23;100971.0;;;23.5;53.22
32452;BME280;45528;52.102;5.242;2023-07-13T01:06:00;100975.0;;;23.59;52.7
32452;BME280;45528;52.102;5.242;2023-07-13T01:07:36;100978.0;;;23.61;52.69
32452;BME280;45528;52.102;5.242;2023-07-13T01:10:52;100975.0;;;23.59;52.63
32452;BME280;45528;52.102;5.242;2023-07-13T01:12:29;100976.0;;;23.53;53.14
32452;BME280;45528;52.102;5.242;2023-07-13T01:14:05;100982.0;;;23.36;53.6
32452;BME280;45528;52.102;5.242;2023-07-13T01:17:20;100981.0;;;23.38;53.56
32452;BME280;45528;52.102;5.242;2023-07-13T01:18:56;100980.0;;;23.35;53.9
32452;BME280;45528;52.102;5.242;2023-07-13T01:20:34;100980.0;;;23.31;53.81
32452;BME280;45528;52.102;5.242;2023-07-13T01:23:51;100983.0;;;23.36;53.75
32452;BME280;45528;52.102;5.242;2023-07-13T01:25:28;100974.0;;;23.22;54.04
32452;BME280;45528;52.102;5.242;2023-07-13T01:27:05;100981.0;;;23.2;54.35
32452;BME280;45528;52.102;5.242;2023-07-13T01:28:42;100981.0;;;23.17;54.51
32452;BME280;45528;52.102;5.242;2023-07-13T01:31:55;100987.0;;;23.27;53.99
32452;BME280;45528;52.102;5.242;2023-07-13T01:33:31;100976.0;;;23.22;54.0
32452;BME280;45528;52.102;5.242;2023-07-13T01:35:07;100980.0;;;23.35;53.98
32452;BME280;45528;52.102;5.242;2023-07-13T01:38:23;100980.0;;;23.25;54.27
32452;BME280;45528;52.102;5.242;2023-07-13T01:39:59;100980.0;;;23.22;54.34
32452;BME280;45528;52.102;5.242;2023-07-13T01:41:35;100980.0;;;23.28;54.35
32452;BME280;45528;52.102;5.242;2023-07-13T01:43:11;100975.0;;;23.23;54.36
32452;BME280;45528;52.102;5.242;2023-07-13T01:46:24;100980.0;;;23.2;54.44
32452;BME280;45528;52.102;5.242;2023-07-13T01:48:00;100978.0;;;23.24;54.51
32452;BME280;45528;52.102;5.242;2023-07-13T01:49:37;100982.0;;;23.23;54.5
32452;BME280;45528;52.102;5.242;2023-07-13T01:52:49;100987.0;;;23.12;54.97
32452;BME280;45528;52.102;5.242;2023-07-13T01:54:25;100988.0;;;22.99;55.27
32452;BME280;45528;52.102;5.242;2023-07-13T01:56:01;100988.0;;;23.1;55.02
32452;BME280;45528;52.102;5.242;2023-07-13T01:59:13;100984.0;;;23.14;54.97
32452;BME280;45528;52.102;5.242;2023-07-13T02:00:51;100988.0;;;23.15;55.11
32452;BME280;45528;52.102;5.242;2023-07-13T02:02:28;100989.0;;;23.0;55.66
32452;BME280;45528;52.102;5.242;2023-07-13T02:05:40;100988.0;;;23.08;55.44
32452;BME280;45528;52.102;5.242;2023-07-13T02:07:16;100983.0;;;23.21;55.04
32452;BME280;45528;52.102;5.242;2023-07-13T02:08:52;100984.0;;;23.11;55.21
32452;BME280;45528;52.102;5.242;2023-07-13T02:10:29;100988.0;;;23.06;55.43
32452;BME280;45528;52.102;5.242;2023-07-13T02:13:43;100991.0;;;22.97;55.77
32452;BME280;45528;52.102;5.242;2023-07-13T02:15:19;100999.0;;;23.04;55.68
32452;BME280;45528;52.102;5.242;2023-07-13T02:16:55;101002.0;;;23.03;55.7
32452;BME280;45528;52.102;5.242;2023-07-13T02:20:08;101001.0;;;23.06;55.54
32452;BME280;45528;52.102;5.242;2023-07-13T02:21:44;101001.0;;;23.1;55.58
32452;BME280;45528;52.102;5.242;2023-07-13T02:23:20;101001.0;;;23.09;55.52
32452;BME280;45528;52.102;5.242;2023-07-13T02:26:33;101000.0;;;23.02;56.12
32452;BME280;45528;52.102;5.242;2023-07-13T02:28:10;100997.0;;;22.93;56.15
32452;BME280;45528;52.102;5.242;2023-07-13T02:29:46;101001.0;;;23.01;56.07
32452;BME280;45528;52.102;5.242;2023-07-13T02:31:22;101002.0;;;22.84;56.62
32452;BME280;45528;52.102;5.242;2023-07-13T02:34:34;100999.0;;;22.73;56.89
32452;BME280;45528;52.102;5.242;2023-07-13T02:36:12;100999.0;;;22.92;56.65
32452;BME280;45528;52.102;5.242;2023-07-13T02:37:49;100999.0;;;22.9;56.53
32452;BME280;45528;52.102;5.242;2023-07-13T02:41:01;101006.0;;;22.94;56.7
32452;BME280;45528;52.102;5.242;2023-07-13T02:42:37;101008.0;;;22.93;56.87
32452;BME280;45528;52.102;5.242;2023-07-13T02:44:13;101003.0;;;22.89;56.98
32452;BME280;45528;52.102;5.242;2023-07-13T02:47:26;101010.0;;;22.73;57.63
32452;BME280;45528;52.102;5.242;2023-07-13T02:49:03;101007.0;;;22.62;57.78
32452;BME280;45528;52.102;5.242;2023-07-13T02:50:40;101000.0;;;22.72;58.04
32452;BME280;45528;52.102;5.242;2023-07-13T02:52:16;101003.0;;;22.74;57.87
32452;BME280;45528;52.102;5.242;2023-07-13T02:55:28;101000.0;;;22.84;57.61
32452;BME280;45528;52.102;5.242;2023-07-13T02:57:05;101001.0;;;22.78;57.91
32452;BME280;45528;52.102;5.242;2023-07-13T02:58:41;101003.0;;;22.72;58.22
32452;BME280;45528;52.102;5.242;2023-07-13T03:01:54;101006.0;;;22.7;58.37
32452;BME280;45528;52.102;5.242;2023-07-13T03:03:30;101000.0;;;22.8;58.1
32452;BME280;45528;52.102;5.242;2023-07-13T03:05:06;101002.0;;;22.68;58.15
32452;BME280;45528;52.102;5.242;2023-07-13T03:08:19;101002.0;;;22.62;58.73
32452;BME280;45528;52.102;5.242;2023-07-13T03:09:55;101005.0;;;22.54;58.59
32452;BME280;45528;52.102;5.242;2023-07-13T03:11:33;101008.0;;;22.62;58.29
32452;BME280;45528;52.102;5.242;2023-07-13T03:13:09;101011.0;;;22.57;58.65
32452;BME280;45528;52.102;5.242;2023-07-13T03:16:21;101010.0;;;22.55;58.6
32452;BME280;45528;52.102;5.242;2023-07-13T03:17:58;101010.0;;;22.62;58.19
32452;BME280;45528;52.102;5.242;2023-07-13T03:19:34;101010.0;;;22.58;58.38
32452;BME280;45528;52.102;5.242;2023-07-13T03:22:46;101006.0;;;22.64;58.25
32452;BME280;45528;52.102;5.242;2023-07-13T03:24:23;101007.0;;;22.59;58.35
32452;BME280;45528;52.102;5.242;2023-07-13T03:26:04;101005.0;;;22.66;58.01
32452;BME280;45528;52.102;5.242;2023-07-13T03:29:17;101009.0;;;22.57;58.58
32452;BME280;45528;52.102;5.242;2023-07-13T03:30:59;101013.0;;;22.51;58.71
32452;BME280;45528;52.102;5.242;2023-07-13T03:32:35;101016.0;;;22.54;58.46
32452;BME280;45528;52.102;5.242;2023-07-13T03:34:12;101019.0;;;22.54;58.61
32452;BME280;45528;52.102;5.242;2023-07-13T03:37:24;101022.0;;;22.59;58.26
32452;BME280;45528;52.102;5.242;2023-07-13T03:39:01;101025.0;;;22.54;58.73
32452;BME280;45528;52.102;5.242;2023-07-13T03:40:38;101024.0;;;22.45;59.01
32452;BME280;45528;52.102;5.242;2023-07-13T03:43:51;101028.0;;;22.34;59.36
32452;BME280;45528;52.102;5.242;2023-07-13T03:45:27;101028.0;;;22.4;59.08
32452;BME280;45528;52.102;5.242;2023-07-13T03:47:04;101030.0;;;22.34;59.38
32452;BME280;45528;52.102;5.242;2023-07-13T03:50:16;101028.0;;;22.4;59.19
32452;BME280;45528;52.102;5.242;2023-07-13T03:51:52;101027.0;;;22.43;59.09
32452;BME280;45528;52.102;5.242;2023-07-13T03:53:28;101027.0;;;22.12;59.83
32452;BME280;45528;52.102;5.242;2023-07-13T03:55:05;101035.0;;;22.31;59.67
32452;BME280;45528;52.102;5.242;2023-07-13T03:58:28;101035.0;;;22.35;59.99
32452;BME280;45528;52.102;5.242;2023-07-13T04:00:13;101037.0;;;22.41;59.53
32452;BME280;45528;52.102;5.242;2023-07-13T04:01:50;101035.0;;;22.35;60.01
32452;BME280;45528;52.102;5.242;2023-07-13T04:03:27;101038.0;;;22.46;59.61
32452;BME280;45528;52.102;5.242;2023-07-13T04:06:40;101038.0;;;22.29;60.16
32452;BME280;45528;52.102;5.242;2023-07-13T04:08:16;101044.0;;;22.3;60.31
32452;BME280;45528;52.102;5.242;2023-07-13T04:09:52;101045.0;;;22.29;60.54
32452;BME280;45528;52.102;5.242;2023-07-13T04:13:08;101046.0;;;22.3;60.39
32452;BME280;45528;52.102;5.242;2023-07-13T04:14:44;101047.0;;;22.31;60.35
32452;BME280;45528;52.102;5.242;2023-07-13T04:16:21;101049.0;;;22.28;60.67
32452;BME280;45528;52.102;5.242;2023-07-13T04:19:34;101050.0;;;22.35;60.7
32452;BME280;45528;52.102;5.242;2023-07-13T04:21:11;101055.0;;;22.35;60.63
32452;BME280;45528;52.102;5.242;2023-07-13T04:22:47;101062.0;;;22.39;60.54
32452;BME280;45528;52.102;5.242;2023-07-13T04:24:24;101058.0;;;22.44;60.39
32452;BME280;45528;52.102;5.242;2023-07-13T04:27:36;101061.0;;;22.44;60.41
32452;BME280;45528;52.102;5.242;2023-07-13T04:29:12;101062.0;;;22.56;60.09
32452;BME280;45528;52.102;5.242;2023-07-13T04:30:49;101062.0;;;22.54;59.91
32452;BME280;45528;52.102;5.242;2023-07-13T04:34:01;101063.0;;;22.49;60.2
32452;BME280;45528;52.102;5.242;2023-07-13T04:35:38;101068.0;;;22.58;60.01
32452;BME280;45528;52.102;5.242;2023-07-13T04:37:15;101066.0;;;22.43;60.5
32452;BME280;45528;52.102;5.242;2023-07-13T04:40:28;101069.0;;;22.65;59.86
32452;BME280;45528;52.102;5.242;2023-07-13T04:42:05;101071.0;;;22.54;60.33
32452;BME280;45528;52.102;5.242;2023-07-13T04:43:41;101068.0;;;22.51;60.69
32452;BME280;45528;52.102;5.242;2023-07-13T04:45:18;101069.0;;;22.53;60.28
32452;BME280;45528;52.102;5.242;2023-07-13T04:48:30;101070.0;;;22.57;60.27
32452;BME280;45528;52.102;5.242;2023-07-13T04:50:07;101073.0;;;22.62;60.2
32452;BME280;45528;52.102;5.242;2023-07-13T04:51:44;101069.0;;;22.78;59.41
32452;BME280;45528;52.102;5.242;2023-07-13T04:54:56;101069.0;;;22.67;60.14
32452;BME280;45528;52.102;5.242;2023-07-13T04:56:32;101075.0;;;22.7;59.95
32452;BME280;45528;52.102;5.242;2023-07-13T04:58:09;101071.0;;;22.74;59.78
32452;BME280;45528;52.102;5.242;2023-07-13T05:01:21;101080.0;;;22.81;59.69
32452;BME280;45528;52.102;5.242;2023-07-13T05:02:58;101073.0;;;22.87;59.51
32452;BME280;45528;52.102;5.242;2023-07-13T05:04:34;101073.0;;;22.89;59.83
32452;BME280;45528;52.102;5.242;2023-07-13T05:06:10;101078.0;;;22.83;60.06
32452;BME280;45528;52.102;5.242;2023-07-13T05:09:23;101080.0;;;22.87;60.21
32452;BME280;45528;52.102;5.242;2023-07-13T05:10:59;101085.0;;;22.78;60.12
32452;BME280;45528;52.102;5.242;2023-07-13T05:12:36;101080.0;;;22.81;60.21
32452;BME280;45528;52.102;5.242;2023-07-13T05:15:55;101080.0;;;22.89;59.77
32452;BME280;45528;52.102;5.242;2023-07-13T05:17:32;101085.0;;;22.8;60.03
32452;BME280;45528;52.102;5.242;2023-07-13T05:19:10;101084.0;;;22.87;59.94
32452;BME280;45528;52.102;5.242;2023-07-13T05:20:46;101083.0;;;22.9;60.21
32452;BME280;45528;52.102;5.242;2023-07-13T05:23:59;101083.0;;;22.98;59.78
32452;BME280;45528;52.102;5.242;2023-07-13T05:25:35;101085.0;;;22.98;60.23
32452;BME280;45528;52.102;5.242;2023-07-13T05:27:11;101091.0;;;23.02;59.79
32452;BME280;45528;52.102;5.242;2023-07-13T05:30:23;101093.0;;;22.98;60.18
32452;BME280;45528;52.102;5.242;2023-07-13T05:32:00;101100.0;;;23.05;60.08
32452;BME280;45528;52.102;5.242;2023-07-13T05:33:36;101097.0;;;23.07;60.06
32452;BME280;45528;52.102;5.242;2023-07-13T05:36:48;101103.0;;;23.14;59.91
32452;BME280;45528;52.102;5.242;2023-07-13T05:38:25;101101.0;;;23.17;59.74
32452;BME280;45528;52.102;5.242;2023-07-13T05:40:01;101102.0;;;23.15;60.07
32452;BME280;45528;52.102;5.242;2023-07-13T05:43:14;101098.0;;;22.99;60.2
32452;BME280;45528;52.102;5.242;2023-07-13T05:44:51;101107.0;;;23.35;59.72
32452;BME280;45528;52.102;5.242;2023-07-13T05:46:28;101100.0;;;23.2;59.92
32452;BME280;45528;52.102;5.242;2023-07-13T05:48:04;101103.0;;;23.33;59.94
32452;BME280;45528;52.102;5.242;2023-07-13T05:51:16;101107.0;;;23.45;59.46
32452;BME280;45528;52.102;5.242;2023-07-13T05:52:52;101105.0;;;23.45;59.51
32452;BME280;45528;52.102;5.242;2023-07-13T05:54:29;101112.0;;;23.2;60.42
32452;BME280;45528;52.102;5.242;2023-07-13T05:57:41;101116.0;;;23.54;59.17
32452;BME280;45528;52.102;5.242;2023-07-13T05:59:17;101117.0;;;23.69;59.12
32452;BME280;45528;52.102;5.242;2023-07-13T06:01:00;101118.0;;;23.16;60.33
32452;BME280;45528;52.102;5.242;2023-07-13T06:02:36;101124.0;;;23.7;59.24
32452;BME280;45528;52.102;5.242;2023-07-13T06:05:48;101134.0;;;23.84;59.15
32452;BME280;45528;52.102;5.242;2023-07-13T06:07:25;101133.0;;;23.91;58.77
32452;BME280;45528;52.102;5.242;2023-07-13T06:09:01;101133.0;;;23.78;58.91
32452;BME280;45528;52.102;5.242;2023-07-13T06:12:14;101133.0;;;23.88;58.8
32452;BME280;45528;52.102;5.242;2023-07-13T06:13:50;101136.0;;;23.83;59.22
32452;BME280;45528;52.102;5.242;2023-07-13T06:15:27;101132.0;;;24.13;58.52
32452;BME280;45528;52.102;5.242;2023-07-13T06:18:41;101137.0;;;24.27;58.43
32452;BME280;45528;52.102;5.242;2023-07-13T06:20:18;101138.0;;;24.1;58.32
32452;BME280;45528;52.102;5.242;2023-07-13T06:21:54;101142.0;;;24.21;58.04
32452;BME280;45528;52.102;5.242;2023-07-13T06:25:07;101143.0;;;24.15;58.49
32452;BME280;45528;52.102;5.242;2023-07-13T06:26:43;101151.0;;;24.34;57.47
32452;BME280;45528;52.102;5.242;2023-07-13T06:28:19;101149.0;;;24.26;57.79
32452;BME280;45528;52.102;5.242;2023-07-13T06:29:55;101150.0;;;24.2;58.12
32452;BME280;45528;52.102;5.242;2023-07-13T06:33:07;101152.0;;;24.35;57.71
32452;BME280;45528;52.102;5.242;2023-07-13T06:34:43;101160.0;;;24.02;58.73
32452;BME280;45528;52.102;5.242;2023-07-13T06:36:19;101153.0;;;24.39;57.64
32452;BME280;45528;52.102;5.242;2023-07-13T06:39:32;101150.0;;;24.44;57.12
32452;BME280;45528;52.102;5.242;2023-07-13T06:41:09;101157.0;;;24.36;57.78
32452;BME280;45528;52.102;5.242;2023-07-13T06:42:45;101148.0;;;24.2;57.85
32452;BME280;45528;52.102;5.242;2023-07-13T06:45:57;101155.0;;;24.27;58.16
32452;BME280;45528;52.102;5.242;2023-07-13T06:47:34;101156.0;;;23.88;58.58
32452;BME280;45528;52.102;5.242;2023-07-13T06:49:10;101153.0;;;24.35;57.7
32452;BME280;45528;52.102;5.242;2023-07-13T06:50:48;101151.0;;;24.42;57.79
32452;BME280;45528;52.102;5.242;2023-07-13T06:54:01;101157.0;;;24.33;58.05
32452;BME280;45528;52.102;5.242;2023-07-13T06:55:37;101163.0;;;24.5;57.79
32452;BME280;45528;52.102;5.242;2023-07-13T06:57:14;101165.0;;;24.54;57.88
32452;BME280;45528;52.102;5.242;2023-07-13T07:00:27;101168.0;;;24.58;58.07
32452;BME280;45528;52.102;5.242;2023-07-13T07:02:03;101170.0;;;24.56;58.06
32452;BME280;45528;52.102;5.242;2023-07-13T07:03:40;101173.0;;;24.29;58.82
32452;BME280;45528;52.102;5.242;2023-07-13T07:06:52;101178.0;;;24.58;58.24
32452;BME280;45528;52.102;5.242;2023-07-13T07:08:28;101180.0;;;24.82;57.92
32452;BME280;45528;52.102;5.242;2023-07-13T07:10:05;101178.0;;;24.43;58.97
32452;BME280;45528;52.102;5.242;2023-07-13T07:11:41;101184.0;;;24.65;58.33
32452;BME280;45528;52.102;5.242;2023-07-13T07:14:55;101190.0;;;24.78;58.41
32452;BME280;45528;52.102;5.242;2023-07-13T07:16:31;101188.0;;;24.51;59.17
32452;BME280;45528;52.102;5.242;2023-07-13T07:18:07;101187.0;;;24.7;58.72
32452;BME280;45528;52.102;5.242;2023-07-13T07:21:19;101191.0;;;24.34;59.74
32452;BME280;45528;52.102;5.242;2023-07-13T07:22:55;101194.0;;;24.58;59.52
32452;BME280;45528;52.102;5.242;2023-07-13T07:24:32;101195.0;;;24.55;59.82
32452;BME280;45528;52.102;5.242;2023-07-13T07:27:44;101205.0;;;24.34;60.86
32452;BME280;45528;52.102;5.242;2023-07-13T07:29:21;101191.0;;;24.43;60.72
32452;BME280;45528;52.102;5.242;2023-07-13T07:30:58;101194.0;;;24.43;60.85
32452;BME280;45528;52.102;5.242;2023-07-13T07:32:34;101200.0;;;24.37;61.53
32452;BME280;45528;52.102;5.242;2023-07-13T07:35:46;101197.0;;;24.37;61.54
32452;BME280;45528;52.102;5.242;2023-07-13T07:37:23;101188.0;;;24.28;61.52
32452;BME280;45528;52.102;5.242;2023-07-13T07:39:00;101180.0;;;24.23;62.17
32452;BME280;45528;52.102;5.242;2023-07-13T07:42:13;101173.0;;;24.23;62.54
32452;BME280;45528;52.102;5.242;2023-07-13T07:43:49;101178.0;;;24.18;62.76
32452;BME280;45528;52.102;5.242;2023-07-13T07:45:26;101175.0;;;24.13;63.24
32452;BME280;45528;52.102;5.242;2023-07-13T07:48:39;101180.0;;;24.23;63.2
32452;BME280;45528;52.102;5.242;2023-07-13T07:50:16;101178.0;;;24.4;62.87
32452;BME280;45528;52.102;5.242;2023-07-13T07:51:52;101177.0;;;24.49;62.66
32452;BME280;45528;52.102;5.242;2023-07-13T07:55:06;101185.0;;;24.49;62.26
32452;BME280;45528;52.102;5.242;2023-07-13T07:56:43;101186.0;;;24.55;62.23
32452;BME280;45528;52.102;5.242;2023-07-13T07:58:20;101188.0;;;24.5;61.79
32452;BME280;45528;52.102;5.242;2023-07-13T07:59:56;101191.0;;;24.5;61.77
32452;BME280;45528;52.102;5.242;2023-07-13T08:03:09;101192.0;;;24.64;62.46
32452;BME280;45528;52.102;5.242;2023-07-13T08:04:46;101193.0;;;24.83;62.29
32452;BME280;45528;52.102;5.242;2023-07-13T08:06:22;101195.0;;;24.3;62.32
32452;BME280;45528;52.102;5.242;2023-07-13T08:09:36;101186.0;;;24.63;61.98
32452;BME280;45528;52.102;5.242;2023-07-13T08:11:12;101180.0;;;24.57;61.16
32452;BME280;45528;52.102;5.242;2023-07-13T08:12:48;101182.0;;;24.72;60.27
32452;BME280;45528;52.102;5.242;2023-07-13T08:14:25;101185.0;;;24.75;60.5
32452;BME280;45528;52.102;5.242;2023-07-13T08:17:40;101187.0;;;25.06;60.8
32452;BME280;45528;52.102;5.242;2023-07-13T08:19:17;101187.0;;;24.88;59.92
32452;BME280;45528;52.102;5.242;2023-07-13T08:20:53;101189.0;;;25.15;59.69
32452;BME280;45528;52.102;5.242;2023-07-13T08:24:06;101196.0;;;25.24;60.05
32452;BME280;45528;52.102;5.242;2023-07-13T08:25:43;101199.0;;;25.2;58.09
32452;BME280;45528;52.102;5.242;2023-07-13T08:27:28;101198.0;;;25.12;56.96
32452;BME280;45528;52.102;5.242;2023-07-13T08:29:04;101195.0;;;25.32;56.5
32452;BME280;45528;52.102;5.242;2023-07-13T08:32:17;101200.0;;;25.37;55.71
32452;BME280;45528;52.102;5.242;2023-07-13T08:33:55;101200.0;;;25.18;55.0
32452;BME280;45528;52.102;5.242;2023-07-13T08:35:31;101199.0;;;25.18;52.52
32452;BME280;45528;52.102;5.242;2023-07-13T08:38:45;101194.0;;;24.78;52.26
32452;BME280;45528;52.102;5.242;2023-07-13T08:40:25;101207.0;;;24.52;53.77
32452;BME280;45528;52.102;5.242;2023-07-13T08:42:05;101215.0;;;24.64;53.8
32452;BME280;45528;52.102;5.242;2023-07-13T08:43:53;101220.0;;;24.14;55.62
32452;BME280;45528;52.102;5.242;2023-07-13T08:47:21;101223.0;;;24.47;55.36
32452;BME280;45528;52.102;5.242;2023-07-13T08:49:03;101230.0;;;24.36;57.07
32452;BME280;45528;52.102;5.242;2023-07-13T08:50:49;101227.0;;;24.35;56.48
32452;BME280;45528;52.102;5.242;2023-07-13T08:52:36;101226.0;;;24.23;56.4
32452;BME280;45528;52.102;5.242;2023-07-13T08:54:20;101230.0;;;24.13;56.7
32452;BME280;45528;52.102;5.242;2023-07-13T08:57:38;101222.0;;;23.96;57.02
32452;BME280;45528;52.102;5.242;2023-07-13T08:59:19;101221.0;;;24.09;56.84
32452;BME280;45528;52.102;5.242;2023-07-13T09:01:04;101223.0;;;24.1;57.45
32452;BME280;45528;52.102;5.242;2023-07-13T09:02:48;101221.0;;;24.18;57.39
32452;BME280;45528;52.102;5.242;2023-07-13T09:06:12;101225.0;;;24.22;57.52
32452;BME280;45528;52.102;5.242;2023-07-13T09:08:02;101216.0;;;24.27;57.48
32452;BME280;45528;52.102;5.242;2023-07-13T09:09:54;101222.0;;;24.4;57.11
32452;BME280;45528;52.102;5.242;2023-07-13T09:11:50;101220.0;;;24.01;58.69
32452;BME280;45528;52.102;5.242;2023-07-13T09:13:35;101220.0;;;24.45;58.7
32452;BME280;45528;52.102;5.242;2023-07-13T09:15:25;101218.0;;;24.77;59.05
32452;BME280;45528;52.102;5.242;2023-07-13T09:18:50;101211.0;;;25.03;59.13
32452;BME280;45528;52.102;5.242;2023-07-13T09:20:33;101218.0;;;25.04;58.68
32452;BME280;45528;52.102;5.242;2023-07-13T09:22:18;101208.0;;;25.42;57.72
32452;BME280;45528;52.102;5.242;2023-07-13T09:24:00;101205.0;;;25.32;57.8
32452;BME280;45528;52.102;5.242;2023-07-13T09:26:01;101209.0;;;25.5;57.14
32452;BME280;45528;52.102;5.242;2023-07-13T09:27:43;101212.0;;;25.55;55.5
32452;BME280;45528;52.102;5.242;2023-07-13T09:31:09;101218.0;;;25.84;55.41
32452;BME280;45528;52.102;5.242;2023-07-13T09:32:50;101212.0;;;26.09;53.97
32452;BME280;45528;52.102;5.242;2023-07-13T09:34:29;101211.0;;;26.06;52.95
32452;BME280;45528;52.102;5.242;2023-07-13T09:36:18;101225.0;;;26.07;52.82
32452;BME280;45528;52.102;5.242;2023-07-13T09:39:46;101228.0;;;25.52;56.58
32452;BME280;45528;52.102;5.242;2023-07-13T09:41:29;101234.0;;;25.25;57.36
32452;BME280;45528;52.102;5.242;2023-07-13T09:43:10;101238.0;;;25.18;57.46
32452;BME280;45528;52.102;5.242;2023-07-13T09:44:53;101253.0;;;24.75;58.94
32452;BME280;45528;52.102;5.242;2023-07-13T09:46:30;101247.0;;;24.58;58.85
32452;BME280;45528;52.102;5.242;2023-07-13T09:49:54;101244.0;;;24.34;59.8
32452;BME280;45528;52.102;5.242;2023-07-13T09:51:31;101247.0;;;24.41;59.93
32452;BME280;45528;52.102;5.242;2023-07-13T09:53:12;101240.0;;;24.29;59.99
32452;BME280;45528;52.102;5.242;2023-07-13T09:56:29;101240.0;;;24.24;61.57
32452;BME280;45528;52.102;5.242;2023-07-13T09:58:10;101238.0;;;24.14;62.2
32452;BME280;45528;52.102;5.242;2023-07-13T09:59:49;101248.0;;;24.34;62.68
32452;BME280;45528;52.102;5.242;2023-07-13T10:01:33;101246.0;;;24.49;61.59
32452;BME280;45528;52.102;5.242;2023-07-13T10:04:56;101243.0;;;24.52;62.79
32452;BME280;45528;52.102;5.242;2023-07-13T10:06:34;101239.0;;;24.34;64.14
32452;BME280;45528;52.102;5.242;2023-07-13T10:08:20;101239.0;;;24.78;61.91
32452;BME280;45528;52.102;5.242;2023-07-13T10:09:59;101242.0;;;24.71;62.17
32452;BME280;45528;52.102;5.242;2023-07-13T10:11:38;101245.0;;;25.21;60.78
32452;BME280;45528;52.102;5.242;2023-07-13T10:15:15;101244.0;;;25.0;62.38
32452;BME280;45528;52.102;5.242;2023-07-13T10:16:58;101245.0;;;25.07;60.79
32452;BME280;45528;52.102;5.242;2023-07-13T10:18:42;101258.0;;;25.51;59.96
32452;BME280;45528;52.102;5.242;2023-07-13T10:20:21;101255.0;;;25.31;60.02
32452;BME280;45528;52.102;5.242;2023-07-13T10:23:38;101249.0;;;25.29;59.14
32452;BME280;45528;52.102;5.242;2023-07-13T10:25:17;101255.0;;;25.82;57.85
32452;BME280;45528;52.102;5.242;2023-07-13T10:26:57;101262.0;;;25.69;58.62
32452;BME280;45528;52.102;5.242;2023-07-13T10:28:52;101264.0;;;25.43;58.11
32452;BME280;45528;52.102;5.242;2023-07-13T10:30:33;101268.0;;;25.53;55.62
32452;BME280;45528;52.102;5.242;2023-07-13T10:33:51;101270.0;;;25.22;56.09
32452;BME280;45528;52.102;5.242;2023-07-13T10:35:29;101276.0;;;25.27;56.29
32452;BME280;45528;52.102;5.242;2023-07-13T10:37:07;101270.0;;;25.35;58.2
32452;BME280;45528;52.102;5.242;2023-07-13T10:38:52;101273.0;;;25.5;57.08
32452;BME280;45528;52.102;5.242;2023-07-13T10:42:25;101268.0;;;25.21;55.98
32452;BME280;45528;52.102;5.242;2023-07-13T10:44:18;101273.0;;;25.4;55.22
32452;BME280;45528;52.102;5.242;2023-07-13T10:45:56;101266.0;;;25.58;55.33
32452;BME280;45528;52.102;5.242;2023-07-13T10:47:33;101262.0;;;25.59;54.33
32452;BME280;45528;52.102;5.242;2023-07-13T10:50:50;101271.0;;;25.88;53.62
32452;BME280;45528;52.102;5.242;2023-07-13T10:52:42;101278.0;;;26.38;52.79
32452;BME280;45528;52.102;5.242;2023-07-13T10:54:27;101275.0;;;26.36;51.02
32452;BME280;45528;52.102;5.242;2023-07-13T10:56:19;101270.0;;;26.56;51.32
32452;BME280;45528;52.102;5.242;2023-07-13T10:58:01;101269.0;;;26.63;52.34
32452;BME280;45528;52.102;5.242;2023-07-13T11:01:15;101269.0;;;26.83;50.74
32452;BME280;45528;52.102;5.242;2023-07-13T11:02:58;101272.0;;;26.99;50.07
32452;BME280;45528;52.102;5.242;2023-07-13T11:04:40;101266.0;;;26.83;49.15
32452;BME280;45528;52.102;5.242;2023-07-13T11:06:34;101286.0;;;26.97;51.24